Time;durP1;ratioP1;P1;durP2;ratioP2;P2;SDS_P1;SDS_P2;PMS_P1;PMS_P2;Temp;Humidity;BMP_temperature;BMP_pressure;BME280_temperature;BME280_humidity;BME280_pressure;Samples;Min_cycle;Max_cycle;Signal;HPM_P1;HPM_P2
2023/05/25 00:00:08;;;;;;;11.77;4.45;;;;;;;-146.27;88.51;83195.81;5040941;28;20076;-69
2023/05/25 00:02:34;;;;;;;16.15;4.40;;;;;;;-146.27;88.62;83227.97;5013888;28;20037;-70
2023/05/25 00:05:01;;;;;;;17.23;4.35;;;;;;;-146.27;88.89;83163.69;5041070;28;20368;-70
2023/05/25 00:07:26;;;;;;;12.68;4.35;;;;;;;-146.27;89.34;83211.91;5070621;28;20029;-71
2023/05/25 00:09:52;;;;;;;10.40;4.60;;;;;;;-146.27;90.59;83177.75;5056931;28;20030;-70
2023/05/25 00:12:17;;;;;;;20.98;5.03;;;;;;;-146.27;89.80;83173.72;5044511;28;20429;-71
2023/05/25 00:14:42;;;;;;;15.10;5.45;;;;;;;-146.27;89.70;83175.72;5046005;28;20366;-70
2023/05/25 00:17:09;;;;;;;14.60;4.43;;;;;;;-146.27;90.16;83165.69;5036347;28;20066;-70
2023/05/25 00:19:35;;;;;;;16.60;5.47;;;;;;;-146.27;90.28;83163.69;5047355;28;20039;-70
2023/05/25 00:22:01;;;;;;;15.75;4.40;;;;;;;-146.27;90.85;83183.78;5049294;28;20037;-70
2023/05/25 00:24:28;;;;;;;13.52;4.63;;;;;;;-146.27;91.53;83171.72;5033933;28;20084;-70
2023/05/25 00:26:55;;;;;;;13.07;5.82;;;;;;;-146.27;91.13;83207.88;5040851;28;20040;-70
2023/05/25 00:29:20;;;;;;;12.75;4.43;;;;;;;-146.27;92.37;83139.56;5039601;28;20075;-70
2023/05/25 00:31:46;;;;;;;15.20;5.10;;;;;;;-146.27;91.28;83179.75;5050953;28;20393;-70
2023/05/25 00:34:11;;;;;;;15.50;5.68;;;;;;;-146.27;91.52;83101.38;5050416;28;20033;-69
2023/05/25 00:36:36;;;;;;;22.92;5.47;;;;;;;-146.27;91.28;83169.69;5053579;28;20024;-69
2023/05/25 00:39:02;;;;;;;16.77;4.78;;;;;;;-146.27;91.50;83173.72;5051334;28;20025;-70
2023/05/25 00:41:27;;;;;;;11.45;4.30;;;;;;;-146.27;90.72;83179.75;5044861;28;20037;-70
2023/05/25 00:43:53;;;;;;;18.20;4.95;;;;;;;-146.27;91.47;83185.78;5047211;28;20465;-70
2023/05/25 00:46:18;;;;;;;12.88;4.20;;;;;;;-146.27;91.66;83215.91;5053594;28;20465;-70
2023/05/25 00:48:44;;;;;;;13.25;4.10;;;;;;;-146.27;92.47;83223.94;5040464;28;20489;-70
2023/05/25 00:51:13;;;;;;;11.80;4.13;;;;;;;-146.27;92.72;83157.66;5045974;28;20482;-70
2023/05/25 00:53:38;;;;;;;14.82;4.40;;;;;;;-146.27;90.92;83187.78;5044208;28;20029;-70
2023/05/25 00:56:23;;;;;;;11.38;4.20;;;;;;;-146.27;91.36;83213.91;5051707;28;20036;-70
2023/05/25 00:58:54;;;;;;;22.30;5.03;;;;;;;-146.27;91.45;83234.00;5050020;28;20078;-70
2023/05/25 01:01:21;;;;;;;10.25;4.32;;;;;;;-146.27;91.85;83264.13;5044551;28;20669;-70
2023/05/25 01:03:52;;;;;;;11.68;4.53;;;;;;;-146.27;92.10;83240.03;5040848;28;20076;-70
2023/05/25 01:06:21;;;;;;;17.50;5.57;;;;;;;-146.27;92.07;83280.22;5039246;28;20564;-71
2023/05/25 01:08:51;;;;;;;14.27;4.35;;;;;;;-146.27;93.03;83244.03;5043691;28;20032;-70
2023/05/25 01:11:20;;;;;;;14.93;5.15;;;;;;;-146.27;92.72;83256.09;5056884;28;20053;-70
2023/05/25 01:13:49;;;;;;;11.75;4.65;;;;;;;-146.27;92.36;83272.19;5047668;28;20029;-67
2023/05/25 01:16:15;;;;;;;16.77;5.30;;;;;;;-146.27;92.44;83292.28;5036839;28;20462;-70
2023/05/25 01:18:41;;;;;;;13.43;4.95;;;;;;;-146.27;93.08;83292.28;5043949;28;20399;-70
2023/05/25 01:21:16;;;;;;;16.05;5.05;;;;;;;-146.27;92.58;83304.31;5055388;28;20076;-70
2023/05/25 01:24:08;;;;;;;17.27;4.63;;;;;;;-146.27;93.61;83294.28;5053842;28;20016;-70
2023/05/25 01:26:48;;;;;;;15.32;4.82;;;;;;;-146.27;93.23;83284.22;5052247;28;20033;-69
2023/05/25 01:29:16;;;;;;;18.08;6.28;;;;;;;-146.27;94.63;83300.31;5043014;28;20389;-69
2023/05/25 01:31:42;;;;;;;24.35;5.40;;;;;;;-146.27;93.67;83268.16;5048689;28;20025;-70
2023/05/25 01:34:08;;;;;;;9.65;4.97;;;;;;;-146.27;92.21;83300.31;5041680;28;20504;-70
2023/05/25 01:36:33;;;;;;;13.25;5.30;;;;;;;-146.27;92.54;83294.28;5039230;28;20018;-70
2023/05/25 01:38:59;;;;;;;11.02;4.72;;;;;;;-146.27;93.19;83288.25;5044055;28;20064;-70
2023/05/25 01:41:25;;;;;;;14.48;5.00;;;;;;;-146.27;93.55;83266.16;5055198;28;20358;-71
2023/05/25 01:43:51;;;;;;;14.50;5.13;;;;;;;-146.27;93.81;83296.28;5053942;28;20032;-70
2023/05/25 01:46:36;;;;;;;13.70;5.60;;;;;;;-146.27;93.44;83292.28;5045971;28;20047;-69
2023/05/25 01:49:26;;;;;;;14.00;5.20;;;;;;;-146.27;93.96;83324.41;5041517;28;20032;-70
2023/05/25 01:51:54;;;;;;;15.95;5.22;;;;;;;-146.27;95.66;83308.34;5047499;28;20481;-69
2023/05/25 01:54:24;;;;;;;17.27;5.15;;;;;;;-146.27;92.85;83227.97;5035162;28;20037;-70
2023/05/25 01:56:53;;;;;;;12.82;4.93;;;;;;;-146.27;92.87;83268.16;5034714;28;20029;-70
2023/05/25 01:59:20;;;;;;;15.52;5.25;;;;;;;-146.27;93.06;83296.28;5037613;28;20025;-69
2023/05/25 02:01:48;;;;;;;13.60;4.53;;;;;;;-146.27;93.93;83326.44;5035494;28;20574;-70
2023/05/25 02:04:16;;;;;;;18.73;5.40;;;;;;;-146.27;93.69;83338.47;5037663;28;20087;-71
2023/05/25 02:06:41;;;;;;;16.67;5.22;;;;;;;-146.27;95.54;83298.28;5045104;28;20044;-71
2023/05/25 02:09:07;;;;;;;14.75;5.25;;;;;;;-146.27;93.90;83316.38;5041476;28;20397;-70
2023/05/25 02:11:32;;;;;;;15.10;5.53;;;;;;;-146.27;93.54;83332.44;5034849;28;20084;-70
2023/05/25 02:13:57;;;;;;;16.70;5.90;;;;;;;-146.27;94.68;83340.50;5037842;28;20515;-69
2023/05/25 02:16:23;;;;;;;17.65;6.25;;;;;;;-146.27;94.66;83324.41;5067234;28;20442;-70
2023/05/25 02:18:49;;;;;;;9.63;4.75;;;;;;;-146.27;94.66;83364.59;5050756;28;20435;-70
2023/05/25 02:21:15;;;;;;;17.05;5.68;;;;;;;-146.27;94.84;83362.59;5044958;28;20029;-70
2023/05/25 02:23:40;;;;;;;18.25;6.00;;;;;;;-146.27;95.75;83376.66;5043968;28;20025;-70
2023/05/25 02:26:06;;;;;;;13.52;5.53;;;;;;;-146.27;95.96;83368.63;5043271;28;20531;-70
2023/05/25 02:28:31;;;;;;;26.08;7.05;;;;;;;-146.27;95.71;83366.59;5039328;28;20028;-70
2023/05/25 02:30:56;;;;;;;15.05;5.75;;;;;;;-146.27;95.60;83392.72;5032557;28;20057;-71
2023/05/25 02:33:22;;;;;;;13.93;6.13;;;;;;;-146.27;97.07;83451.00;5037829;28;20104;-70
2023/05/25 02:35:48;;;;;;;18.73;7.38;;;;;;;-146.27;96.26;83436.94;5037491;28;20103;-70
2023/05/25 02:38:13;;;;;;;15.05;6.10;;;;;;;-146.27;95.81;83416.84;5032681;28;20036;-70
2023/05/25 02:40:39;;;;;;;13.82;5.72;;;;;;;-146.27;96.30;83420.88;5040306;28;20029;-70
2023/05/25 02:43:04;;;;;;;18.10;6.78;;;;;;;-146.27;97.13;83408.81;5051309;28;20167;-69
2023/05/25 02:45:30;;;;;;;16.02;6.65;;;;;;;-146.27;97.57;83376.66;5035053;28;20147;-70
2023/05/25 02:47:55;;;;;;;17.33;6.35;;;;;;;-146.27;96.35;83400.78;5034556;28;20091;-70
2023/05/25 02:50:20;;;;;;;16.83;7.00;;;;;;;-146.27;97.06;83366.59;5035370;28;20090;-70
2023/05/25 02:52:46;;;;;;;15.70;6.68;;;;;;;-146.27;96.30;83346.53;5037388;28;20017;-68
2023/05/25 02:55:14;;;;;;;15.35;6.72;;;;;;;-146.27;95.29;83364.59;5061542;28;20543;-69
2023/05/25 02:57:40;;;;;;;17.90;7.18;;;;;;;-146.27;95.14;83386.69;5045162;28;20025;-72
2023/05/25 03:00:06;;;;;;;17.73;7.00;;;;;;;-146.27;95.86;83396.75;5049898;28;20101;-69
2023/05/25 03:02:32;;;;;;;16.83;7.00;;;;;;;-146.27;95.68;83420.88;5036187;28;20091;-72
2023/05/25 03:04:58;;;;;;;17.02;7.72;;;;;;;-146.27;96.33;83416.84;5050655;28;20021;-70
2023/05/25 03:07:25;;;;;;;15.23;7.50;;;;;;;-146.27;96.28;83408.81;5048593;28;20029;-70
2023/05/25 03:09:51;;;;;;;20.10;7.68;;;;;;;-146.27;95.87;83416.84;5038000;28;20051;-70
2023/05/25 03:12:16;;;;;;;16.20;6.97;;;;;;;-146.27;95.55;83370.63;5036165;28;20053;-70
2023/05/25 03:14:42;;;;;;;18.63;8.73;;;;;;;-146.27;95.64;83444.97;5045713;28;20036;-70
2023/05/25 03:17:07;;;;;;;15.95;7.90;;;;;;;-146.27;96.03;83432.91;5051746;28;20040;-71
2023/05/25 03:19:32;;;;;;;15.50;6.95;;;;;;;-146.27;96.34;83453.00;5050117;28;20123;-70
2023/05/25 03:21:58;;;;;;;18.05;8.02;;;;;;;-146.27;96.66;83444.97;5046746;28;20075;-70
2023/05/25 03:24:23;;;;;;;18.48;7.78;;;;;;;-146.27;96.73;83442.97;5062487;28;20074;-71
2023/05/25 03:26:48;;;;;;;14.57;7.47;;;;;;;-146.27;97.07;83477.13;5032501;28;20079;-70
2023/05/25 03:29:14;;;;;;;13.18;7.20;;;;;;;-146.27;97.50;83404.78;5031546;28;20104;-70
2023/05/25 03:31:39;;;;;;;13.43;7.28;;;;;;;-146.27;96.52;83499.22;5038293;28;20025;-70
2023/05/25 03:34:05;;;;;;;22.23;8.38;;;;;;;-146.27;95.95;83495.22;5041855;28;20028;-70
2023/05/25 03:36:32;;;;;;;20.10;7.68;;;;;;;-146.27;96.04;83493.19;5051256;28;20034;-69
2023/05/25 03:38:58;;;;;;;15.10;7.38;;;;;;;-146.27;95.98;83471.09;5038227;28;20036;-71
2023/05/25 03:41:23;;;;;;;15.30;8.07;;;;;;;-146.27;97.87;83479.13;5033953;28;20022;-71
2023/05/25 03:43:48;;;;;;;13.27;7.18;;;;;;;-146.27;96.20;83485.16;5063108;28;20477;-71
2023/05/25 03:46:14;;;;;;;17.27;7.40;;;;;;;-146.27;96.20;83509.28;5056665;28;20029;-71
2023/05/25 03:48:39;;;;;;;18.70;7.35;;;;;;;-146.27;96.09;83515.31;5046907;28;20053;-70
2023/05/25 03:51:05;;;;;;;16.05;7.35;;;;;;;-146.27;96.18;83527.34;5047762;28;20041;-69
2023/05/25 03:53:30;;;;;;;18.17;8.35;;;;;;;-146.27;96.34;83513.28;5044199;28;20032;-71
2023/05/25 03:55:56;;;;;;;13.55;7.10;;;;;;;-146.27;96.61;83513.28;5062185;28;20033;-70
2023/05/25 03:58:21;;;;;;;16.33;7.22;;;;;;;-146.27;96.77;83519.31;5069404;28;20484;-69
2023/05/25 04:00:48;;;;;;;12.05;7.03;;;;;;;-146.27;97.43;83493.19;5049628;28;20056;-70
2023/05/25 04:03:14;;;;;;;13.60;7.68;;;;;;;-146.27;97.67;83519.31;5034913;28;20071;-69
2023/05/25 04:05:40;;;;;;;15.35;7.88;;;;;;;-146.27;97.44;83509.28;5045842;28;20119;-70
2023/05/25 04:08:07;;;;;;;15.77;8.38;;;;;;;-146.27;97.83;83525.34;5069134;28;20025;-69
2023/05/25 04:10:32;;;;;;;20.35;8.45;;;;;;;-146.27;97.75;83533.38;5036662;28;20119;-71
2023/05/25 04:12:58;;;;;;;19.45;8.55;;;;;;;-146.27;97.91;83501.22;5048796;28;20132;-71
2023/05/25 04:15:24;;;;;;;14.60;8.88;;;;;;;-146.27;97.70;83497.22;5033833;28;20029;-70
2023/05/25 04:17:49;;;;;;;20.42;9.52;;;;;;;-146.27;98.84;83489.19;5040029;28;20464;-68
2023/05/25 04:20:15;;;;;;;19.05;9.52;;;;;;;-146.27;98.46;83457.03;5039602;28;20548;-69
2023/05/25 04:22:42;;;;;;;15.80;9.68;;;;;;;-146.27;98.21;83489.19;5050442;28;20036;-71
2023/05/25 04:25:09;;;;;;;21.15;9.48;;;;;;;-146.27;99.17;83479.13;5048233;28;20037;-69
2023/05/25 04:27:35;;;;;;;15.65;9.57;;;;;;;-146.27;99.10;83459.03;5035299;28;20095;-71
2023/05/25 04:30:01;;;;;;;24.15;10.65;;;;;;;-146.27;100.00;83438.94;5029614;28;20033;-70
2023/05/25 04:32:28;;;;;;;21.70;9.95;;;;;;;-146.27;100.00;83440.94;5049401;28;20131;-70
2023/05/25 04:34:55;;;;;;;16.95;9.45;;;;;;;-146.27;99.69;83449.00;5055254;28;20021;-70
2023/05/25 04:37:21;;;;;;;22.55;9.73;;;;;;;-146.27;99.68;83430.91;5034805;28;20463;-70
2023/05/25 04:39:46;;;;;;;18.15;9.35;;;;;;;-146.27;99.80;83408.81;5030431;28;20537;-70
2023/05/25 04:42:12;;;;;;;14.95;10.18;;;;;;;-146.27;100.00;83408.81;5040612;28;20116;-69
2023/05/25 04:44:38;;;;;;;19.92;8.43;;;;;;;-146.27;99.97;83422.88;5038250;28;20060;-74
2023/05/25 04:47:06;;;;;;;20.80;10.63;;;;;;;-146.27;99.93;83414.84;5044404;28;20397;-73
2023/05/25 04:49:31;;;;;;;23.77;10.35;;;;;;;-146.27;99.70;83388.72;5048948;28;20029;-74
2023/05/25 04:51:56;;;;;;;20.70;9.45;;;;;;;-146.27;100.00;83372.63;5039321;28;20055;-75
2023/05/25 04:54:22;;;;;;;18.52;9.18;;;;;;;-146.27;100.00;83366.59;5036055;28;20037;-74
2023/05/25 04:56:47;;;;;;;19.77;9.65;;;;;;;-146.27;100.00;83370.63;5037606;28;20022;-74
2023/05/25 04:59:12;;;;;;;19.70;10.00;;;;;;;-146.27;100.00;83340.50;5040787;28;20029;-74
2023/05/25 05:01:39;;;;;;;18.58;9.43;;;;;;;-146.27;100.00;83324.41;5038241;28;20051;-74
2023/05/25 05:04:05;;;;;;;19.38;9.55;;;;;;;-146.27;100.00;83342.50;5038803;28;20473;-72
2023/05/25 05:06:31;;;;;;;19.65;10.38;;;;;;;-146.27;100.00;83350.53;5039216;28;20024;-73
2023/05/25 05:08:56;;;;;;;20.40;10.07;;;;;;;-146.27;100.00;83348.53;5031732;28;20026;-73
2023/05/25 05:11:22;;;;;;;21.17;10.65;;;;;;;-146.27;99.92;83298.28;5048849;28;20041;-73
2023/05/25 05:13:48;;;;;;;24.83;10.55;;;;;;;-146.27;100.00;83304.31;5049433;28;20071;-73
2023/05/25 05:16:13;;;;;;;28.17;10.80;;;;;;;-146.27;99.92;83320.41;5042737;28;20025;-73
2023/05/25 05:18:38;;;;;;;20.95;9.88;;;;;;;-146.27;99.94;83316.38;5033557;28;20077;-73
2023/05/25 05:21:04;;;;;;;21.23;9.48;;;;;;;-146.27;100.00;83296.28;5049251;28;20465;-73
2023/05/25 05:23:29;;;;;;;21.58;9.77;;;;;;;-146.27;100.00;83292.28;5063178;28;20520;-73
2023/05/25 05:25:54;;;;;;;17.70;9.68;;;;;;;-146.27;100.00;83248.06;5036426;28;20037;-73
2023/05/25 05:28:20;;;;;;;21.05;9.63;;;;;;;-146.27;100.00;83256.09;5044741;28;20056;-73
2023/05/25 05:30:46;;;;;;;17.05;10.45;;;;;;;-146.27;100.00;83240.03;5055457;28;20376;-73
2023/05/25 05:33:12;;;;;;;21.90;9.40;;;;;;;-146.27;100.00;83207.88;5045063;28;20040;-74
2023/05/25 05:35:37;;;;;;;21.13;10.35;;;;;;;-146.27;99.43;83225.97;5057545;28;20021;-74
2023/05/25 05:38:03;;;;;;;22.92;10.55;;;;;;;-146.27;100.00;83272.19;5053597;28;20047;-73
2023/05/25 05:40:29;;;;;;;24.02;10.90;;;;;;;-146.27;100.00;83260.13;5038909;28;20029;-71
2023/05/25 05:42:54;;;;;;;23.90;10.98;;;;;;;-146.27;99.99;83209.88;5045814;28;20074;-74
2023/05/25 05:45:20;;;;;;;23.55;11.68;;;;;;;-146.27;100.00;83244.03;5036810;28;20060;-73
2023/05/25 05:47:45;;;;;;;25.60;9.70;;;;;;;-146.27;99.85;83215.91;5030711;28;20067;-73
2023/05/25 05:50:11;;;;;;;24.50;10.77;;;;;;;-146.27;100.00;83238.03;5032489;28;20283;-73
2023/05/25 05:52:36;;;;;;;20.38;10.55;;;;;;;-146.27;100.00;83145.59;5040961;28;20032;-73
2023/05/25 05:55:01;;;;;;;23.23;10.27;;;;;;;-146.27;99.72;83157.66;5054466;28;20404;-73
2023/05/25 05:57:27;;;;;;;19.75;9.63;;;;;;;-146.27;99.44;83151.63;5040345;28;20028;-73
2023/05/25 05:59:52;;;;;;;21.73;9.77;;;;;;;-146.27;100.00;83119.47;5032865;28;20416;-75
2023/05/25 06:02:18;;;;;;;20.95;9.48;;;;;;;-146.27;99.69;83103.41;5040480;28;20104;-73
2023/05/25 06:04:43;;;;;;;22.38;8.60;;;;;;;-146.27;98.79;83121.47;5037492;28;20029;-73
2023/05/25 06:07:08;;;;;;;21.15;8.50;;;;;;;-146.27;98.02;83105.41;5037484;28;21848;-74
2023/05/25 06:09:34;;;;;;;20.88;7.65;;;;;;;-146.27;98.16;83115.47;5058557;28;20404;-74
2023/05/25 06:12:00;;;;;;;14.52;6.95;;;;;;;-146.27;97.85;83103.41;5056134;28;20063;-74
2023/05/25 06:14:25;;;;;;;15.57;6.30;;;;;;;-146.27;97.83;83103.41;5059661;28;20447;-74
2023/05/25 06:16:51;;;;;;;12.57;6.72;;;;;;;-146.27;97.48;83107.41;5042805;28;20053;-73
2023/05/25 06:19:16;;;;;;;18.98;7.80;;;;;;;-146.27;97.76;83093.34;5046545;28;20060;-73
2023/05/25 06:21:42;;;;;;;20.08;7.70;;;;;;;-146.27;97.22;83107.41;5041081;28;20542;-74
2023/05/25 06:24:07;;;;;;;14.50;8.05;;;;;;;-146.27;97.17;83053.16;5036351;28;20108;-75
2023/05/25 06:26:33;;;;;;;18.42;7.80;;;;;;;-146.27;97.70;83059.19;5035363;28;20067;-75
2023/05/25 06:28:58;;;;;;;21.05;9.07;;;;;;;-146.27;97.06;83039.09;5053137;28;20028;-71
2023/05/25 06:31:23;;;;;;;20.23;8.82;;;;;;;-146.27;96.07;83006.97;5049623;28;20510;-71
2023/05/25 06:33:49;;;;;;;16.80;7.63;;;;;;;-146.27;95.75;83006.97;5050920;28;20067;-69
2023/05/25 06:36:14;;;;;;;18.73;8.02;;;;;;;-146.27;96.20;82984.88;5051295;28;20096;-69
2023/05/25 06:38:40;;;;;;;17.63;7.18;;;;;;;-146.27;95.74;83010.97;5045560;28;20456;-70
2023/05/25 06:41:06;;;;;;;22.05;8.02;;;;;;;-146.27;95.60;82978.84;5047746;28;20020;-73
2023/05/25 06:43:31;;;;;;;19.58;7.40;;;;;;;-146.27;95.10;82984.88;5071929;28;20070;-73
2023/05/25 06:45:57;;;;;;;20.90;7.82;;;;;;;-146.27;94.65;82980.84;5063066;28;20037;-73
2023/05/25 06:48:23;;;;;;;18.83;7.45;;;;;;;-146.27;94.11;82960.75;5031608;28;20523;-72
2023/05/25 06:50:48;;;;;;;16.52;7.20;;;;;;;-146.27;94.01;82926.59;5040929;28;20104;-71
2023/05/25 06:53:13;;;;;;;16.45;7.43;;;;;;;-146.27;93.80;82930.63;5051174;28;20063;-71
2023/05/25 06:55:39;;;;;;;20.30;8.98;;;;;;;-146.27;93.41;82914.53;5051892;28;20029;-69
2023/05/25 06:58:04;;;;;;;19.63;7.53;;;;;;;-146.27;92.68;82890.44;5051908;28;20029;-72
2023/05/25 07:00:30;;;;;;;20.17;7.65;;;;;;;-146.27;92.87;82874.38;5051761;28;20098;-71
2023/05/25 07:02:55;;;;;;;15.43;8.02;;;;;;;-146.27;91.02;82870.34;5036081;28;20021;-71
2023/05/25 07:05:20;;;;;;;18.13;6.78;;;;;;;-146.27;91.37;82892.44;5049188;28;20060;-72
2023/05/25 07:07:46;;;;;;;16.35;7.32;;;;;;;-146.27;91.98;82910.53;5031562;28;20029;-69
2023/05/25 07:10:11;;;;;;;20.10;8.20;;;;;;;-146.27;91.99;82850.25;5032155;28;20627;-70
2023/05/25 07:12:36;;;;;;;14.98;7.65;;;;;;;-146.27;91.31;82898.47;5031943;28;20466;-74
2023/05/25 07:15:02;;;;;;;12.75;7.10;;;;;;;-146.27;91.09;82862.31;5030237;28;20035;-73
2023/05/25 07:17:30;;;;;;;16.00;6.78;;;;;;;-146.27;89.78;82888.44;5046368;28;20033;-73
2023/05/25 07:19:55;;;;;;;20.52;6.82;;;;;;;-146.27;89.81;82900.47;5051574;28;20032;-73
2023/05/25 07:22:22;;;;;;;17.77;5.88;;;;;;;-146.27;89.21;82870.34;5037980;28;20021;-73
2023/05/25 07:24:48;;;;;;;11.10;6.22;;;;;;;-146.27;89.95;82924.59;5031403;28;20026;-72
2023/05/25 07:27:13;;;;;;;11.15;5.75;;;;;;;-146.27;89.66;82924.59;5032697;28;20072;-73
2023/05/25 07:29:39;;;;;;;14.02;6.25;;;;;;;-146.27;89.70;82878.38;5032627;28;20617;-73
2023/05/25 07:32:05;;;;;;;18.08;6.78;;;;;;;-146.27;89.35;82858.28;5032260;28;20052;-71
2023/05/25 07:34:32;;;;;;;16.48;6.72;;;;;;;-146.27;88.96;82852.25;5031823;28;20083;-71
2023/05/25 07:36:57;;;;;;;15.57;5.97;;;;;;;-146.27;89.91;82872.34;5045353;28;20532;-71
2023/05/25 07:39:23;;;;;;;15.02;5.05;;;;;;;-146.27;88.00;82858.28;5041219;28;20060;-70
2023/05/25 07:41:49;;;;;;;10.35;4.15;;;;;;;-146.27;86.56;82850.25;5030358;28;20488;-71
2023/05/25 07:44:14;;;;;;;12.18;3.70;;;;;;;-146.27;87.28;82850.25;5039284;28;20020;-72
2023/05/25 07:46:40;;;;;;;11.85;3.85;;;;;;;-146.27;87.54;82810.06;5052648;28;20421;-72
2023/05/25 07:49:10;;;;;;;11.23;4.25;;;;;;;-146.27;86.72;82824.13;5048778;28;20063;-72
2023/05/25 07:51:36;;;;;;;8.23;3.42;;;;;;;-146.27;85.86;82800.03;5034338;28;20494;-73
2023/05/25 07:54:01;;;;;;;12.13;3.72;;;;;;;-146.27;84.54;82781.94;5032258;28;20026;-72
2023/05/25 07:56:27;;;;;;;10.25;3.97;;;;;;;-146.27;84.86;82806.06;5032383;28;20037;-72
2023/05/25 07:58:52;;;;;;;10.27;3.95;;;;;;;-146.27;85.29;82771.91;5031453;28;20017;-72
2023/05/25 08:01:18;;;;;;;10.43;4.55;;;;;;;-146.27;83.64;82814.09;5063875;28;20083;-71
2023/05/25 08:03:44;;;;;;;9.55;3.63;;;;;;;-146.27;83.68;82773.91;5040583;28;20025;-73
2023/05/25 08:06:10;;;;;;;10.90;3.80;;;;;;;-146.27;84.44;82834.19;5049013;28;20033;-72
2023/05/25 08:08:36;;;;;;;10.27;3.67;;;;;;;-146.27;83.71;82773.91;5047242;28;20400;-73
2023/05/25 08:11:01;;;;;;;12.50;4.00;;;;;;;-146.27;83.55;82727.72;5043748;28;20022;-73
2023/05/25 08:13:27;;;;;;;7.80;3.75;;;;;;;-146.27;82.95;82729.72;5029529;28;20022;-72
2023/05/25 08:15:53;;;;;;;10.05;3.22;;;;;;;-146.27;83.23;82753.81;5029446;28;20548;-72
2023/05/25 08:18:18;;;;;;;11.55;3.90;;;;;;;-146.27;82.78;82757.84;5029660;28;20036;-73
2023/05/25 08:20:44;;;;;;;7.22;3.50;;;;;;;-146.27;82.65;82749.81;5030515;28;20506;-72
2023/05/25 08:23:09;;;;;;;13.77;3.80;;;;;;;-146.27;82.67;82739.75;5030509;28;20087;-73
2023/05/25 08:25:35;;;;;;;9.75;3.95;;;;;;;-146.27;83.24;82755.84;5029391;28;20041;-72
2023/05/25 08:28:00;;;;;;;12.38;3.80;;;;;;;-146.27;84.19;82743.78;5046909;28;20370;-71
2023/05/25 08:30:26;;;;;;;11.00;3.70;;;;;;;-146.27;82.49;82717.66;5039579;28;20542;-72
2023/05/25 08:32:51;;;;;;;9.10;3.70;;;;;;;-146.27;84.35;82735.75;5042587;28;20271;-72
2023/05/25 08:35:17;;;;;;;9.55;3.80;;;;;;;-146.27;83.91;82749.81;5050182;28;20048;-72
2023/05/25 08:37:43;;;;;;;7.07;3.83;;;;;;;-146.27;82.47;82729.72;5050266;28;20029;-73
2023/05/25 08:40:15;;;;;;;10.25;4.45;;;;;;;-146.27;83.94;82725.69;5050410;28;20260;-72
2023/05/25 08:42:45;;;;;;;8.85;3.30;;;;;;;-146.27;83.70;82729.72;5050412;28;20037;-72
2023/05/25 08:45:11;;;;;;;9.32;3.15;;;;;;;-146.27;83.06;82719.66;5033679;28;20496;-72
2023/05/25 08:47:41;;;;;;;10.50;2.78;;;;;;;-146.27;82.67;82733.72;5028935;28;20678;-72
2023/05/25 08:50:11;;;;;;;10.68;3.35;;;;;;;-146.27;83.39;82721.69;5029122;28;20124;-73
2023/05/25 08:52:38;;;;;;;10.40;2.97;;;;;;;-146.27;84.05;82715.66;5028846;28;20489;-72
2023/05/25 08:55:06;;;;;;;7.88;2.88;;;;;;;-146.27;82.96;82705.59;5034016;28;20059;-72
2023/05/25 08:57:58;;;;;;;7.00;3.25;;;;;;;-146.27;83.02;82695.56;5033113;28;20044;-72
2023/05/25 09:00:35;;;;;;;7.05;3.08;;;;;;;-146.27;82.82;82709.63;5033227;28;20044;-72
2023/05/25 09:03:10;;;;;;;8.00;3.13;;;;;;;-146.27;82.82;82701.59;5034272;28;20033;-72
2023/05/25 09:05:35;;;;;;;12.85;3.47;;;;;;;-146.27;82.47;82721.69;5034066;28;20021;-72
2023/05/25 09:08:05;;;;;;;9.98;3.03;;;;;;;-146.27;81.48;82769.91;5034033;28;20040;-72
2023/05/25 09:10:33;;;;;;;6.18;2.53;;;;;;;-146.27;80.05;82721.69;5033957;28;20112;-72
2023/05/25 09:13:01;;;;;;;7.53;2.70;;;;;;;-146.27;80.04;82679.50;5033742;28;20059;-71
2023/05/25 09:15:26;;;;;;;6.32;2.58;;;;;;;-146.27;79.28;82655.38;5034038;28;20264;-71
2023/05/25 09:17:51;;;;;;;8.77;2.95;;;;;;;-146.27;79.37;82679.50;5032624;28;20025;-71
2023/05/25 09:20:18;;;;;;;8.55;2.45;;;;;;;-146.27;78.41;82657.41;5032340;28;20053;-73
2023/05/25 09:22:44;;;;;;;7.45;2.60;;;;;;;-146.27;76.31;82605.16;5033770;28;20029;-72
2023/05/25 09:25:10;;;;;;;5.63;2.28;;;;;;;-146.27;77.16;82605.16;5042279;28;20029;-73
2023/05/25 09:27:37;;;;;;;6.65;2.05;;;;;;;-146.27;76.60;82548.91;5053462;28;20021;-72
2023/05/25 09:30:04;;;;;;;7.50;2.90;;;;;;;-146.27;77.24;82536.84;5052236;28;20029;-72
2023/05/25 09:32:31;;;;;;;9.73;2.65;;;;;;;-146.27;75.10;82480.59;5053651;28;20024;-73
2023/05/25 09:35:06;;;;;;;11.35;3.65;;;;;;;-146.27;75.51;82454.50;5053667;28;20021;-73
2023/05/25 09:37:31;;;;;;;7.82;2.80;;;;;;;-146.27;73.72;82460.53;5053649;28;20056;-73
2023/05/25 09:39:57;;;;;;;9.23;3.38;;;;;;;-146.27;72.95;82456.50;5052087;28;20067;-73
2023/05/25 09:42:22;;;;;;;11.35;3.67;;;;;;;-146.27;75.75;82452.47;5051658;28;20033;-72
2023/05/25 09:44:48;;;;;;;8.50;3.17;;;;;;;-146.27;75.43;82446.47;5032911;28;20088;-73
2023/05/25 09:47:15;;;;;;;7.13;2.88;;;;;;;-146.27;74.27;82428.38;5033217;28;20033;-73
2023/05/25 09:49:43;;;;;;;9.43;3.33;;;;;;;-146.27;75.01;82444.44;5033570;28;20489;-72
2023/05/25 09:52:08;;;;;;;9.15;3.20;;;;;;;-146.27;75.28;82420.34;5031972;28;20113;-73
2023/05/25 09:54:35;;;;;;;6.38;2.80;;;;;;;-146.27;73.05;82464.53;5033364;28;20104;-72
2023/05/25 09:57:02;;;;;;;12.68;3.83;;;;;;;-146.27;73.16;82482.63;5033344;28;20070;-72
2023/05/25 09:59:28;;;;;;;7.45;2.20;;;;;;;-146.27;71.94;82486.63;5033143;28;20083;-71
2023/05/25 10:01:53;;;;;;;8.48;3.95;;;;;;;-146.27;73.35;82506.72;5036649;28;20485;-73
2023/05/25 10:04:19;;;;;;;12.15;3.30;;;;;;;-146.27;72.16;82490.66;5033979;28;20036;-73
2023/05/25 10:06:48;;;;;;;8.25;2.47;;;;;;;-146.27;71.04;82464.53;5032486;28;20075;-72
2023/05/25 10:09:17;;;;;;;5.53;2.65;;;;;;;-146.27;71.01;82474.59;5031879;28;20477;-72
2023/05/25 10:11:42;;;;;;;6.30;2.92;;;;;;;-146.27;69.35;82486.63;5033022;28;20041;-72
2023/05/25 10:14:09;;;;;;;10.70;2.58;;;;;;;-146.27;69.31;82464.53;5032980;28;20080;-75
2023/05/25 10:16:38;;;;;;;10.15;3.55;;;;;;;-146.27;70.97;82380.16;5032560;28;20024;-74
2023/05/25 10:19:08;;;;;;;8.57;3.35;;;;;;;-146.27;71.61;82335.97;5032457;28;20033;-74
2023/05/25 10:21:36;;;;;;;9.30;2.67;;;;;;;-146.27;69.79;82376.16;5032595;28;20062;-75
2023/05/25 10:24:23;;;;;;;8.10;2.40;;;;;;;-146.27;70.18;82412.31;5032416;28;20475;-75
2023/05/25 10:26:53;;;;;;;7.97;2.50;;;;;;;-146.27;69.85;82408.28;5033196;28;20032;-74
2023/05/25 10:29:19;;;;;;;6.38;3.00;;;;;;;-146.27;69.88;82420.34;5032281;28;20112;-75
2023/05/25 10:31:46;;;;;;;13.13;3.40;;;;;;;-146.27;70.62;82396.25;5034528;28;20393;-74
2023/05/25 10:34:13;;;;;;;10.95;4.25;;;;;;;-146.27;71.40;82408.28;5032812;28;20093;-74
2023/05/25 10:36:40;;;;;;;13.27;5.05;;;;;;;-146.27;73.08;82434.41;5032900;28;20032;-76
2023/05/25 10:39:07;;;;;;;10.63;4.82;;;;;;;-146.27;75.85;82428.38;5032588;28;20029;-75
2023/05/25 10:41:32;;;;;;;9.68;5.07;;;;;;;-146.27;74.99;82468.56;5032702;28;20032;-73
2023/05/25 10:43:58;;;;;;;9.63;4.70;;;;;;;-146.27;75.96;82482.63;5032256;28;20386;-75
2023/05/25 10:46:24;;;;;;;10.30;5.18;;;;;;;-146.27;77.49;82466.56;5032332;28;20064;-75
2023/05/25 10:48:59;;;;;;;11.55;4.30;;;;;;;-146.27;76.92;82504.72;5031692;28;20061;-75
2023/05/25 10:51:36;;;;;;;13.27;5.45;;;;;;;-146.27;77.94;82488.66;5031979;28;20074;-75
2023/05/25 10:54:02;;;;;;;9.90;4.38;;;;;;;-146.27;75.51;82474.59;5032195;28;20025;-75
2023/05/25 10:56:27;;;;;;;9.73;4.13;;;;;;;-146.27;75.36;82486.63;5032346;28;20504;-75
2023/05/25 10:58:52;;;;;;;10.93;3.88;;;;;;;-146.27;76.08;82464.53;5031861;28;20101;-75
2023/05/25 11:01:18;;;;;;;10.35;3.72;;;;;;;-146.27;77.04;82484.63;5031568;28;20021;-75
2023/05/25 11:03:43;;;;;;;12.73;4.22;;;;;;;-146.27;74.84;82440.44;5030717;28;20025;-75
2023/05/25 11:06:14;;;;;;;8.98;3.83;;;;;;;-146.27;75.33;82482.63;5031932;28;20033;-75